sensor_id;sensor_type;location;lat;lon;timestamp;pressure;altitude;pressure_sealevel;temperature;humidity
51359;BME280;37448;51.588;7.248;2023-03-01T00:01:26;102432.31;;;-2.73;76.99
51359;BME280;37448;51.588;7.248;2023-03-01T00:03:27;102437.59;;;-2.70;76.36
51359;BME280;37448;51.588;7.248;2023-03-01T00:05:27;102429.44;;;-2.78;77.66
51359;BME280;37448;51.588;7.248;2023-03-01T00:07:27;102427.88;;;-2.76;76.41
51359;BME280;37448;51.588;7.248;2023-03-01T00:09:28;102425.03;;;-2.80;77.10
51359;BME280;37448;51.588;7.248;2023-03-01T00:11:30;102428.09;;;-2.86;77.40
51359;BME280;37448;51.588;7.248;2023-03-01T00:13:31;102425.84;;;-2.95;78.18
51359;BME280;37448;51.588;7.248;2023-03-01T00:15:32;102425.66;;;-2.98;78.50
51359;BME280;37448;51.588;7.248;2023-03-01T00:17:32;102427.03;;;-3.03;78.56
51359;BME280;37448;51.588;7.248;2023-03-01T00:19:33;102428.78;;;-3.02;78.57
51359;BME280;37448;51.588;7.248;2023-03-01T00:21:33;102417.50;;;-3.06;78.47
51359;BME280;37448;51.588;7.248;2023-03-01T00:23:35;102427.44;;;-3.10;78.46
51359;BME280;37448;51.588;7.248;2023-03-01T00:25:41;102424.00;;;-3.11;78.55
51359;BME280;37448;51.588;7.248;2023-03-01T00:27:41;102429.59;;;-3.17;79.11
51359;BME280;37448;51.588;7.248;2023-03-01T00:29:42;102425.78;;;-3.23;78.82
51359;BME280;37448;51.588;7.248;2023-03-01T00:31:42;102432.34;;;-3.27;78.89
51359;BME280;37448;51.588;7.248;2023-03-01T00:33:43;102429.59;;;-3.30;79.48
51359;BME280;37448;51.588;7.248;2023-03-01T00:35:44;102415.56;;;-3.37;80.01
51359;BME280;37448;51.588;7.248;2023-03-01T00:37:44;102422.03;;;-3.42;79.97
51359;BME280;37448;51.588;7.248;2023-03-01T00:39:45;102412.50;;;-3.44;80.24
51359;BME280;37448;51.588;7.248;2023-03-01T00:41:45;102414.16;;;-3.45;79.75
51359;BME280;37448;51.588;7.248;2023-03-01T00:43:45;102411.41;;;-3.48;79.93
51359;BME280;37448;51.588;7.248;2023-03-01T00:45:46;102407.28;;;-3.46;79.55
51359;BME280;37448;51.588;7.248;2023-03-01T00:47:48;102403.88;;;-3.47;79.57
51359;BME280;37448;51.588;7.248;2023-03-01T00:49:49;102400.09;;;-3.52;80.38
51359;BME280;37448;51.588;7.248;2023-03-01T00:51:49;102395.50;;;-3.44;79.04
51359;BME280;37448;51.588;7.248;2023-03-01T00:53:51;102395.41;;;-3.46;79.61
51359;BME280;37448;51.588;7.248;2023-03-01T00:55:52;102397.00;;;-3.48;79.68
51359;BME280;37448;51.588;7.248;2023-03-01T00:57:52;102393.22;;;-3.53;79.96
51359;BME280;37448;51.588;7.248;2023-03-01T00:59:53;102400.69;;;-3.56;79.94
51359;BME280;37448;51.588;7.248;2023-03-01T01:01:53;102393.16;;;-3.54;79.92
51359;BME280;37448;51.588;7.248;2023-03-01T01:03:59;102393.03;;;-3.56;79.72
51359;BME280;37448;51.588;7.248;2023-03-01T01:06:00;102396.75;;;-3.51;79.63
51359;BME280;37448;51.588;7.248;2023-03-01T01:08:09;102393.34;;;-3.51;79.31
51359;BME280;37448;51.588;7.248;2023-03-01T01:10:10;102394.13;;;-3.52;79.74
51359;BME280;37448;51.588;7.248;2023-03-01T01:12:17;102393.94;;;-3.55;79.73
51359;BME280;37448;51.588;7.248;2023-03-01T01:14:18;102384.19;;;-3.61;80.04
51359;BME280;37448;51.588;7.248;2023-03-01T01:16:20;102384.78;;;-3.65;80.58
51359;BME280;37448;51.588;7.248;2023-03-01T01:18:22;102382.13;;;-3.67;80.33
51359;BME280;37448;51.588;7.248;2023-03-01T01:20:23;102380.28;;;-3.69;80.84
51359;BME280;37448;51.588;7.248;2023-03-01T01:22:23;102373.28;;;-3.72;80.90
51359;BME280;37448;51.588;7.248;2023-03-01T01:24:24;102373.88;;;-3.76;80.50
51359;BME280;37448;51.588;7.248;2023-03-01T01:26:27;102369.88;;;-3.72;81.07
51359;BME280;37448;51.588;7.248;2023-03-01T01:28:28;102366.28;;;-3.75;80.95
51359;BME280;37448;51.588;7.248;2023-03-01T01:30:28;102379.56;;;-3.67;80.21
51359;BME280;37448;51.588;7.248;2023-03-01T01:32:29;102373.00;;;-3.63;79.55
51359;BME280;37448;51.588;7.248;2023-03-01T01:34:30;102370.25;;;-3.66;80.03
51359;BME280;37448;51.588;7.248;2023-03-01T01:36:30;102370.13;;;-3.68;79.55
51359;BME280;37448;51.588;7.248;2023-03-01T01:38:31;102365.75;;;-3.70;80.37
51359;BME280;37448;51.588;7.248;2023-03-01T01:40:32;102367.38;;;-3.71;79.94
51359;BME280;37448;51.588;7.248;2023-03-01T01:42:32;102368.47;;;-3.67;79.85
51359;BME280;37448;51.588;7.248;2023-03-01T01:44:33;102373.78;;;-3.64;79.89
51359;BME280;37448;51.588;7.248;2023-03-01T01:46:49;102365.81;;;-3.69;80.01
51359;BME280;37448;51.588;7.248;2023-03-01T01:48:57;102371.03;;;-3.67;79.93
51359;BME280;37448;51.588;7.248;2023-03-01T01:51:00;102366.13;;;-3.64;79.63
51359;BME280;37448;51.588;7.248;2023-03-01T01:53:01;102370.44;;;-3.63;79.33
51359;BME280;37448;51.588;7.248;2023-03-01T01:55:05;102363.75;;;-3.61;79.17
51359;BME280;37448;51.588;7.248;2023-03-01T01:57:11;102359.91;;;-3.68;80.23
51359;BME280;37448;51.588;7.248;2023-03-01T01:59:13;102358.06;;;-3.70;79.86
51359;BME280;37448;51.588;7.248;2023-03-01T02:01:14;102354.53;;;-3.72;80.20
51359;BME280;37448;51.588;7.248;2023-03-01T02:03:24;102351.19;;;-3.71;80.04
51359;BME280;37448;51.588;7.248;2023-03-01T02:05:40;102342.34;;;-3.77;80.59
51359;BME280;37448;51.588;7.248;2023-03-01T02:07:44;102341.94;;;-3.83;80.38
51359;BME280;37448;51.588;7.248;2023-03-01T02:09:49;102344.31;;;-3.86;80.96
51359;BME280;37448;51.588;7.248;2023-03-01T02:11:51;102353.34;;;-3.78;79.78
51359;BME280;37448;51.588;7.248;2023-03-01T02:13:53;102343.22;;;-3.76;79.32
51359;BME280;37448;51.588;7.248;2023-03-01T02:15:54;102343.44;;;-3.73;79.48
51359;BME280;37448;51.588;7.248;2023-03-01T02:17:56;102342.13;;;-3.80;79.67
51359;BME280;37448;51.588;7.248;2023-03-01T02:22:24;102325.25;;;-3.91;80.33
51359;BME280;37448;51.588;7.248;2023-03-01T02:24:49;102330.06;;;-3.96;80.72
51359;BME280;37448;51.588;7.248;2023-03-01T02:26:55;102329.97;;;-3.97;80.51
51359;BME280;37448;51.588;7.248;2023-03-01T02:28:56;102329.66;;;-4.02;80.88
51359;BME280;37448;51.588;7.248;2023-03-01T02:30:57;102330.13;;;-4.08;80.95
51359;BME280;37448;51.588;7.248;2023-03-01T02:33:16;102339.47;;;-4.08;80.64
51359;BME280;37448;51.588;7.248;2023-03-01T02:35:17;102339.75;;;-4.17;80.83
51359;BME280;37448;51.588;7.248;2023-03-01T02:37:20;102337.78;;;-4.21;81.31
51359;BME280;37448;51.588;7.248;2023-03-01T02:39:32;102329.09;;;-4.23;81.30
51359;BME280;37448;51.588;7.248;2023-03-01T02:41:36;102333.28;;;-4.12;80.97
51359;BME280;37448;51.588;7.248;2023-03-01T02:43:36;102339.75;;;-4.17;81.68
51359;BME280;37448;51.588;7.248;2023-03-01T02:45:47;102332.09;;;-4.17;81.28
51359;BME280;37448;51.588;7.248;2023-03-01T02:47:48;102327.97;;;-4.15;81.51
51359;BME280;37448;51.588;7.248;2023-03-01T02:49:48;102333.53;;;-4.21;81.37
51359;BME280;37448;51.588;7.248;2023-03-01T02:52:11;102335.50;;;-4.16;81.85
51359;BME280;37448;51.588;7.248;2023-03-01T02:54:40;102341.09;;;-4.22;81.15
51359;BME280;37448;51.588;7.248;2023-03-01T02:56:44;102337.00;;;-4.20;81.06
51359;BME280;37448;51.588;7.248;2023-03-01T02:58:49;102343.28;;;-4.15;81.09
51359;BME280;37448;51.588;7.248;2023-03-01T03:00:52;102331.91;;;-4.20;81.14
51359;BME280;37448;51.588;7.248;2023-03-01T03:02:53;102337.34;;;-4.27;81.51
51359;BME280;37448;51.588;7.248;2023-03-01T03:04:57;102337.47;;;-4.26;81.50
51359;BME280;37448;51.588;7.248;2023-03-01T03:06:57;102333.81;;;-4.29;81.77
51359;BME280;37448;51.588;7.248;2023-03-01T03:08:58;102329.81;;;-4.26;81.39
51359;BME280;37448;51.588;7.248;2023-03-01T03:10:58;102333.22;;;-4.25;81.28
51359;BME280;37448;51.588;7.248;2023-03-01T03:13:04;102338.06;;;-4.30;81.96
51359;BME280;37448;51.588;7.248;2023-03-01T03:15:07;102331.06;;;-4.33;81.73
51359;BME280;37448;51.588;7.248;2023-03-01T03:17:08;102326.75;;;-4.34;81.41
51359;BME280;37448;51.588;7.248;2023-03-01T03:19:09;102326.63;;;-4.35;81.60
51359;BME280;37448;51.588;7.248;2023-03-01T03:21:11;102322.53;;;-4.33;81.97
51359;BME280;37448;51.588;7.248;2023-03-01T03:23:12;102327.22;;;-4.39;81.79
51359;BME280;37448;51.588;7.248;2023-03-01T03:25:12;102329.19;;;-4.35;81.46
51359;BME280;37448;51.588;7.248;2023-03-01T03:27:13;102327.16;;;-4.27;81.09
51359;BME280;37448;51.588;7.248;2023-03-01T03:29:13;102323.81;;;-4.26;81.54
51359;BME280;37448;51.588;7.248;2023-03-01T03:31:14;102321.38;;;-4.25;81.21
51359;BME280;37448;51.588;7.248;2023-03-01T03:33:14;102319.59;;;-4.26;81.05
51359;BME280;37448;51.588;7.248;2023-03-01T03:35:14;102324.00;;;-4.23;81.84
51359;BME280;37448;51.588;7.248;2023-03-01T03:37:15;102325.50;;;-4.27;81.85
51359;BME280;37448;51.588;7.248;2023-03-01T03:39:34;102316.06;;;-4.28;81.07
51359;BME280;37448;51.588;7.248;2023-03-01T03:41:35;102312.53;;;-4.30;81.42
51359;BME280;37448;51.588;7.248;2023-03-01T03:43:36;102306.13;;;-4.37;81.65
51359;BME280;37448;51.588;7.248;2023-03-01T03:45:37;102303.38;;;-4.40;81.84
51359;BME280;37448;51.588;7.248;2023-03-01T03:47:38;102299.66;;;-4.45;81.58
51359;BME280;37448;51.588;7.248;2023-03-01T03:49:38;102300.19;;;-4.49;82.00
51359;BME280;37448;51.588;7.248;2023-03-01T03:51:38;102298.44;;;-4.50;81.59
51359;BME280;37448;51.588;7.248;2023-03-01T03:53:39;102302.47;;;-4.54;81.50
51359;BME280;37448;51.588;7.248;2023-03-01T03:55:40;102296.25;;;-4.57;81.64
51359;BME280;37448;51.588;7.248;2023-03-01T03:57:41;102294.69;;;-4.55;82.10
51359;BME280;37448;51.588;7.248;2023-03-01T03:59:41;102286.06;;;-4.57;82.16
51359;BME280;37448;51.588;7.248;2023-03-01T04:01:41;102287.84;;;-4.56;82.11
51359;BME280;37448;51.588;7.248;2023-03-01T04:03:42;102285.59;;;-4.52;81.90
51359;BME280;37448;51.588;7.248;2023-03-01T04:05:46;102284.69;;;-4.52;82.06
51359;BME280;37448;51.588;7.248;2023-03-01T04:07:47;102286.59;;;-4.50;81.98
51359;BME280;37448;51.588;7.248;2023-03-01T04:09:47;102285.47;;;-4.53;81.84
51359;BME280;37448;51.588;7.248;2023-03-01T04:11:48;102285.69;;;-4.50;81.93
51359;BME280;37448;51.588;7.248;2023-03-01T04:13:48;102289.81;;;-4.52;81.36
51359;BME280;37448;51.588;7.248;2023-03-01T04:15:50;102286.25;;;-4.54;81.98
51359;BME280;37448;51.588;7.248;2023-03-01T04:17:52;102281.88;;;-4.57;81.76
51359;BME280;37448;51.588;7.248;2023-03-01T04:19:53;102287.44;;;-4.49;81.76
51359;BME280;37448;51.588;7.248;2023-03-01T04:21:53;102289.13;;;-4.50;82.04
51359;BME280;37448;51.588;7.248;2023-03-01T04:23:53;102284.63;;;-4.54;81.54
51359;BME280;37448;51.588;7.248;2023-03-01T04:25:55;102290.00;;;-4.49;81.76
51359;BME280;37448;51.588;7.248;2023-03-01T04:27:56;102287.38;;;-4.51;81.41
51359;BME280;37448;51.588;7.248;2023-03-01T04:29:57;102284.91;;;-4.49;81.66
51359;BME280;37448;51.588;7.248;2023-03-01T04:31:57;102288.22;;;-4.50;82.04
51359;BME280;37448;51.588;7.248;2023-03-01T04:33:59;102291.75;;;-4.48;81.55
51359;BME280;37448;51.588;7.248;2023-03-01T04:36:00;102280.78;;;-4.47;81.65
51359;BME280;37448;51.588;7.248;2023-03-01T04:38:00;102289.34;;;-4.47;81.99
51359;BME280;37448;51.588;7.248;2023-03-01T04:40:02;102279.91;;;-4.48;81.23
51359;BME280;37448;51.588;7.248;2023-03-01T04:42:16;102284.81;;;-4.51;82.12
51359;BME280;37448;51.588;7.248;2023-03-01T04:44:19;102279.78;;;-4.49;81.57
51359;BME280;37448;51.588;7.248;2023-03-01T04:46:20;102282.72;;;-4.56;81.41
51359;BME280;37448;51.588;7.248;2023-03-01T04:48:21;102278.41;;;-4.57;82.17
51359;BME280;37448;51.588;7.248;2023-03-01T04:50:21;102279.97;;;-4.59;81.90
51359;BME280;37448;51.588;7.248;2023-03-01T04:52:23;102282.53;;;-4.59;81.72
51359;BME280;37448;51.588;7.248;2023-03-01T04:54:24;102282.41;;;-4.61;82.07
51359;BME280;37448;51.588;7.248;2023-03-01T04:56:24;102283.97;;;-4.63;81.85
51359;BME280;37448;51.588;7.248;2023-03-01T04:58:26;102287.03;;;-4.69;81.38
51359;BME280;37448;51.588;7.248;2023-03-01T05:00:27;102276.38;;;-4.75;81.69
51359;BME280;37448;51.588;7.248;2023-03-01T05:02:27;102285.03;;;-4.73;81.82
51359;BME280;37448;51.588;7.248;2023-03-01T05:04:27;102276.19;;;-4.78;82.12
51359;BME280;37448;51.588;7.248;2023-03-01T05:06:28;102283.06;;;-4.77;82.20
51359;BME280;37448;51.588;7.248;2023-03-01T05:08:28;102278.84;;;-4.77;82.97
51359;BME280;37448;51.588;7.248;2023-03-01T05:10:31;102277.59;;;-4.70;83.05
51359;BME280;37448;51.588;7.248;2023-03-01T05:12:32;102272.59;;;-4.68;82.56
51359;BME280;37448;51.588;7.248;2023-03-01T05:14:32;102270.16;;;-4.67;82.59
51359;BME280;37448;51.588;7.248;2023-03-01T05:16:33;102273.50;;;-4.68;81.77
51359;BME280;37448;51.588;7.248;2023-03-01T05:18:33;102273.25;;;-4.71;81.96
51359;BME280;37448;51.588;7.248;2023-03-01T05:20:34;102271.28;;;-4.75;81.97
51359;BME280;37448;51.588;7.248;2023-03-01T05:22:36;102270.41;;;-4.76;81.74
51359;BME280;37448;51.588;7.248;2023-03-01T05:24:37;102275.97;;;-4.81;82.09
51359;BME280;37448;51.588;7.248;2023-03-01T05:26:38;102274.88;;;-4.85;81.90
51359;BME280;37448;51.588;7.248;2023-03-01T05:28:41;102277.34;;;-4.86;82.26
51359;BME280;37448;51.588;7.248;2023-03-01T05:30:41;102275.47;;;-4.89;82.26
51359;BME280;37448;51.588;7.248;2023-03-01T05:32:44;102273.81;;;-4.88;82.00
51359;BME280;37448;51.588;7.248;2023-03-01T05:34:44;102276.25;;;-4.90;82.41
51359;BME280;37448;51.588;7.248;2023-03-01T05:36:46;102268.28;;;-4.95;82.24
51359;BME280;37448;51.588;7.248;2023-03-01T05:38:46;102268.97;;;-4.97;82.07
51359;BME280;37448;51.588;7.248;2023-03-01T05:40:47;102270.63;;;-4.98;82.48
51359;BME280;37448;51.588;7.248;2023-03-01T05:42:53;102269.84;;;-4.97;82.34
51359;BME280;37448;51.588;7.248;2023-03-01T05:44:54;102268.06;;;-4.98;82.48
51359;BME280;37448;51.588;7.248;2023-03-01T05:46:54;102266.28;;;-4.99;82.63
51359;BME280;37448;51.588;7.248;2023-03-01T05:48:55;102265.63;;;-4.96;82.79
51359;BME280;37448;51.588;7.248;2023-03-01T05:50:59;102263.41;;;-4.92;82.95
51359;BME280;37448;51.588;7.248;2023-03-01T05:53:04;102272.63;;;-4.94;82.94
51359;BME280;37448;51.588;7.248;2023-03-01T05:55:06;102275.38;;;-4.91;82.65
51359;BME280;37448;51.588;7.248;2023-03-01T05:57:07;102272.50;;;-4.95;82.81
51359;BME280;37448;51.588;7.248;2023-03-01T05:59:07;102274.47;;;-4.91;82.87
51359;BME280;37448;51.588;7.248;2023-03-01T06:01:11;102272.38;;;-4.97;82.56
51359;BME280;37448;51.588;7.248;2023-03-01T06:03:15;102268.06;;;-4.98;83.10
51359;BME280;37448;51.588;7.248;2023-03-01T06:05:16;102261.97;;;-5.00;82.76
51359;BME280;37448;51.588;7.248;2023-03-01T06:07:16;102259.44;;;-5.00;82.91
51359;BME280;37448;51.588;7.248;2023-03-01T06:09:17;102264.84;;;-4.95;83.12
51359;BME280;37448;51.588;7.248;2023-03-01T06:11:17;102257.66;;;-5.01;82.88
51359;BME280;37448;51.588;7.248;2023-03-01T06:13:17;102258.84;;;-4.96;83.08
51359;BME280;37448;51.588;7.248;2023-03-01T06:15:18;102253.88;;;-4.94;82.97
51359;BME280;37448;51.588;7.248;2023-03-01T06:17:18;102250.34;;;-4.96;82.79
51359;BME280;37448;51.588;7.248;2023-03-01T06:19:18;102252.97;;;-4.95;83.40
51359;BME280;37448;51.588;7.248;2023-03-01T06:21:19;102253.22;;;-4.92;82.95
51359;BME280;37448;51.588;7.248;2023-03-01T06:23:19;102253.88;;;-4.94;82.72
51359;BME280;37448;51.588;7.248;2023-03-01T06:25:22;102255.63;;;-4.93;83.49
51359;BME280;37448;51.588;7.248;2023-03-01T06:27:22;102261.63;;;-4.93;83.09
51359;BME280;37448;51.588;7.248;2023-03-01T06:29:23;102261.63;;;-4.93;82.90
51359;BME280;37448;51.588;7.248;2023-03-01T06:31:23;102253.88;;;-4.94;82.63
51359;BME280;37448;51.588;7.248;2023-03-01T06:33:24;102250.66;;;-4.92;83.21
51359;BME280;37448;51.588;7.248;2023-03-01T06:35:24;102255.84;;;-4.90;82.92
51359;BME280;37448;51.588;7.248;2023-03-01T06:37:29;102264.47;;;-4.88;82.94
51359;BME280;37448;51.588;7.248;2023-03-01T06:39:30;102250.88;;;-4.88;82.68
51359;BME280;37448;51.588;7.248;2023-03-01T06:41:32;102254.41;;;-4.86;83.14
51359;BME280;37448;51.588;7.248;2023-03-01T06:43:33;102248.53;;;-4.85;83.05
51359;BME280;37448;51.588;7.248;2023-03-01T06:45:33;102256.25;;;-4.84;83.33
51359;BME280;37448;51.588;7.248;2023-03-01T06:47:34;102253.81;;;-4.82;82.74
51359;BME280;37448;51.588;7.248;2023-03-01T06:49:34;102255.59;;;-4.81;83.02
51359;BME280;37448;51.588;7.248;2023-03-01T06:51:37;102253.94;;;-4.81;82.71
51359;BME280;37448;51.588;7.248;2023-03-01T06:53:37;102255.78;;;-4.78;83.09
51359;BME280;37448;51.588;7.248;2023-03-01T06:55:38;102251.78;;;-4.74;82.69
51359;BME280;37448;51.588;7.248;2023-03-01T06:57:38;102251.09;;;-4.72;83.03
51359;BME280;37448;51.588;7.248;2023-03-01T06:59:39;102264.06;;;-4.69;83.19
51359;BME280;37448;51.588;7.248;2023-03-01T07:01:39;102263.28;;;-4.68;83.38
51359;BME280;37448;51.588;7.248;2023-03-01T07:03:40;102255.94;;;-4.63;82.68
51359;BME280;37448;51.588;7.248;2023-03-01T07:05:40;102252.59;;;-4.62;82.93
51359;BME280;37448;51.588;7.248;2023-03-01T07:07:40;102248.59;;;-4.58;82.56
51359;BME280;37448;51.588;7.248;2023-03-01T07:09:41;102254.09;;;-4.52;82.94
51359;BME280;37448;51.588;7.248;2023-03-01T07:11:41;102246.75;;;-4.48;82.97
51359;BME280;37448;51.588;7.248;2023-03-01T07:13:41;102246.94;;;-4.44;83.02
51359;BME280;37448;51.588;7.248;2023-03-01T07:15:42;102249.03;;;-4.39;82.83
51359;BME280;37448;51.588;7.248;2023-03-01T07:17:42;102247.66;;;-4.34;82.45
51359;BME280;37448;51.588;7.248;2023-03-01T07:19:44;102247.06;;;-4.29;82.62
51359;BME280;37448;51.588;7.248;2023-03-01T07:21:45;102251.78;;;-4.22;82.92
51359;BME280;37448;51.588;7.248;2023-03-01T07:23:47;102249.66;;;-4.16;82.18
51359;BME280;37448;51.588;7.248;2023-03-01T07:25:54;102249.53;;;-3.77;82.34
51359;BME280;37448;51.588;7.248;2023-03-01T07:27:55;102242.22;;;-3.15;82.23
51359;BME280;37448;51.588;7.248;2023-03-01T07:29:55;102243.72;;;-2.46;77.95
51359;BME280;37448;51.588;7.248;2023-03-01T07:31:55;102242.78;;;-1.86;79.14
51359;BME280;37448;51.588;7.248;2023-03-01T07:33:56;102247.06;;;-1.22;75.60
51359;BME280;37448;51.588;7.248;2023-03-01T07:36:01;102245.25;;;-0.56;74.35
51359;BME280;37448;51.588;7.248;2023-03-01T07:38:01;102243.75;;;-0.35;68.14
51359;BME280;37448;51.588;7.248;2023-03-01T07:40:02;102224.66;;;0.33;73.49
51359;BME280;37448;51.588;7.248;2023-03-01T07:42:02;102238.38;;;0.71;69.46
51359;BME280;37448;51.588;7.248;2023-03-01T07:44:03;102233.75;;;1.23;71.58
51359;BME280;37448;51.588;7.248;2023-03-01T07:46:04;102237.59;;;1.54;62.00
51359;BME280;37448;51.588;7.248;2023-03-01T07:48:04;102230.06;;;1.80;63.37
51359;BME280;37448;51.588;7.248;2023-03-01T07:50:05;102232.69;;;2.25;65.28
51359;BME280;37448;51.588;7.248;2023-03-01T07:52:05;102233.13;;;2.83;67.26
51359;BME280;37448;51.588;7.248;2023-03-01T07:54:06;102230.53;;;3.34;64.91
51359;BME280;37448;51.588;7.248;2023-03-01T07:56:11;102233.22;;;2.86;56.32
51359;BME280;37448;51.588;7.248;2023-03-01T07:58:12;102226.56;;;3.43;55.30
51359;BME280;37448;51.588;7.248;2023-03-01T08:00:12;102235.13;;;3.42;60.61
51359;BME280;37448;51.588;7.248;2023-03-01T08:02:13;102236.59;;;3.10;55.31
51359;BME280;37448;51.588;7.248;2023-03-01T08:04:15;102235.81;;;3.90;62.27
51359;BME280;37448;51.588;7.248;2023-03-01T08:06:16;102230.19;;;4.04;59.58
51359;BME280;37448;51.588;7.248;2023-03-01T08:08:17;102229.72;;;4.17;55.44
51359;BME280;37448;51.588;7.248;2023-03-01T08:10:17;102232.88;;;4.07;56.92
51359;BME280;37448;51.588;7.248;2023-03-01T08:12:18;102229.84;;;4.49;58.14
51359;BME280;37448;51.588;7.248;2023-03-01T08:14:18;102229.63;;;5.04;58.32
51359;BME280;37448;51.588;7.248;2023-03-01T08:16:19;102228.19;;;5.15;54.76
51359;BME280;37448;51.588;7.248;2023-03-01T08:18:20;102229.69;;;5.07;50.56
51359;BME280;37448;51.588;7.248;2023-03-01T08:20:20;102234.09;;;5.43;50.35
51359;BME280;37448;51.588;7.248;2023-03-01T08:22:21;102232.13;;;5.70;53.35
51359;BME280;37448;51.588;7.248;2023-03-01T08:24:21;102227.16;;;5.78;49.65
51359;BME280;37448;51.588;7.248;2023-03-01T08:26:22;102223.81;;;6.20;56.92
51359;BME280;37448;51.588;7.248;2023-03-01T08:28:23;102221.47;;;6.31;50.88
51359;BME280;37448;51.588;7.248;2023-03-01T08:30:23;102220.09;;;6.09;48.76
51359;BME280;37448;51.588;7.248;2023-03-01T08:32:24;102224.44;;;6.08;52.33
51359;BME280;37448;51.588;7.248;2023-03-01T08:34:24;102220.91;;;6.46;46.68
51359;BME280;37448;51.588;7.248;2023-03-01T08:36:30;102218.06;;;5.60;49.20
51359;BME280;37448;51.588;7.248;2023-03-01T08:38:31;102226.31;;;5.79;49.66
51359;BME280;37448;51.588;7.248;2023-03-01T08:40:31;102227.44;;;6.28;50.09
51359;BME280;37448;51.588;7.248;2023-03-01T08:42:32;102222.03;;;6.17;48.60
51359;BME280;37448;51.588;7.248;2023-03-01T08:44:33;102220.56;;;6.30;49.84
51359;BME280;37448;51.588;7.248;2023-03-01T08:46:37;102216.88;;;5.45;48.30
51359;BME280;37448;51.588;7.248;2023-03-01T08:48:38;102213.25;;;6.52;46.66
51359;BME280;37448;51.588;7.248;2023-03-01T08:50:39;102207.25;;;6.13;47.32
51359;BME280;37448;51.588;7.248;2023-03-01T08:52:39;102211.69;;;6.19;46.38
51359;BME280;37448;51.588;7.248;2023-03-01T08:54:39;102211.13;;;6.77;48.84
51359;BME280;37448;51.588;7.248;2023-03-01T08:56:40;102214.69;;;6.82;45.43
51359;BME280;37448;51.588;7.248;2023-03-01T08:58:44;102209.06;;;6.60;46.05
51359;BME280;37448;51.588;7.248;2023-03-01T09:00:45;102206.34;;;6.99;47.21
51359;BME280;37448;51.588;7.248;2023-03-01T09:02:45;102202.19;;;6.63;44.05
51359;BME280;37448;51.588;7.248;2023-03-01T09:04:46;102201.75;;;6.85;43.25
51359;BME280;37448;51.588;7.248;2023-03-01T09:06:46;102208.81;;;7.40;45.54
51359;BME280;37448;51.588;7.248;2023-03-01T09:08:48;102207.50;;;7.67;46.97
51359;BME280;37448;51.588;7.248;2023-03-01T09:10:49;102205.47;;;7.47;44.12
51359;BME280;37448;51.588;7.248;2023-03-01T09:12:49;102204.56;;;7.45;44.54
51359;BME280;37448;51.588;7.248;2023-03-01T09:14:51;102198.78;;;6.64;43.76
51359;BME280;37448;51.588;7.248;2023-03-01T09:16:51;102194.06;;;7.39;46.78
51359;BME280;37448;51.588;7.248;2023-03-01T09:18:53;102196.13;;;7.08;44.04
51359;BME280;37448;51.588;7.248;2023-03-01T09:21:01;102191.66;;;7.52;43.05
51359;BME280;37448;51.588;7.248;2023-03-01T09:23:02;102183.50;;;7.84;44.92
51359;BME280;37448;51.588;7.248;2023-03-01T09:25:03;102190.72;;;8.07;43.19
51359;BME280;37448;51.588;7.248;2023-03-01T09:27:03;102175.69;;;7.85;43.00
51359;BME280;37448;51.588;7.248;2023-03-01T09:29:08;102179.22;;;7.89;42.29
51359;BME280;37448;51.588;7.248;2023-03-01T09:31:09;102183.13;;;8.22;41.47
51359;BME280;37448;51.588;7.248;2023-03-01T09:33:12;102188.63;;;8.47;42.45
51359;BME280;37448;51.588;7.248;2023-03-01T09:35:15;102180.81;;;8.47;41.99
51359;BME280;37448;51.588;7.248;2023-03-01T09:37:15;102181.25;;;8.81;43.51
51359;BME280;37448;51.588;7.248;2023-03-01T09:39:15;102175.09;;;8.74;43.55
51359;BME280;37448;51.588;7.248;2023-03-01T09:43:47;102166.34;;;8.68;40.80
51359;BME280;37448;51.588;7.248;2023-03-01T09:45:50;102161.03;;;8.60;40.07
51359;BME280;37448;51.588;7.248;2023-03-01T09:47:53;102164.91;;;8.22;40.88
51359;BME280;37448;51.588;7.248;2023-03-01T09:50:11;102160.28;;;8.69;40.43
51359;BME280;37448;51.588;7.248;2023-03-01T09:54:29;102163.84;;;8.08;40.35
51359;BME280;37448;51.588;7.248;2023-03-01T09:56:44;102158.34;;;8.52;40.34
51359;BME280;37448;51.588;7.248;2023-03-01T09:58:47;102157.88;;;8.92;40.54
51359;BME280;37448;51.588;7.248;2023-03-01T10:00:53;102160.09;;;9.46;41.74
51359;BME280;37448;51.588;7.248;2023-03-01T10:03:01;102157.59;;;8.59;39.83
51359;BME280;37448;51.588;7.248;2023-03-01T10:09:39;102145.25;;;7.80;38.65
51359;BME280;37448;51.588;7.248;2023-03-01T10:11:44;102155.13;;;7.44;39.13
51359;BME280;37448;51.588;7.248;2023-03-01T10:13:55;102141.59;;;7.65;39.50
51359;BME280;37448;51.588;7.248;2023-03-01T10:16:05;102141.50;;;8.22;39.06
51359;BME280;37448;51.588;7.248;2023-03-01T10:18:18;102140.56;;;8.17;38.53
51359;BME280;37448;51.588;7.248;2023-03-01T10:20:23;102138.22;;;8.40;39.56
51359;BME280;37448;51.588;7.248;2023-03-01T10:22:29;102138.41;;;8.53;40.44
51359;BME280;37448;51.588;7.248;2023-03-01T10:24:34;102141.03;;;8.56;37.78
51359;BME280;37448;51.588;7.248;2023-03-01T10:26:47;102142.22;;;8.87;38.32
51359;BME280;37448;51.588;7.248;2023-03-01T10:28:58;102142.34;;;9.03;39.61
51359;BME280;37448;51.588;7.248;2023-03-01T10:31:00;102137.03;;;8.92;38.39
51359;BME280;37448;51.588;7.248;2023-03-01T10:33:01;102147.09;;;9.51;38.33
51359;BME280;37448;51.588;7.248;2023-03-01T10:35:16;102134.59;;;9.08;36.41
51359;BME280;37448;51.588;7.248;2023-03-01T10:37:19;102136.78;;;9.69;37.83
51359;BME280;37448;51.588;7.248;2023-03-01T10:39:23;102131.59;;;9.75;36.71
51359;BME280;37448;51.588;7.248;2023-03-01T10:41:26;102129.91;;;9.88;36.73
51359;BME280;37448;51.588;7.248;2023-03-01T10:43:32;102132.03;;;9.14;36.51
51359;BME280;37448;51.588;7.248;2023-03-01T10:45:41;102123.34;;;9.10;37.19
51359;BME280;37448;51.588;7.248;2023-03-01T10:47:42;102130.28;;;8.29;37.67
51359;BME280;37448;51.588;7.248;2023-03-01T10:49:55;102120.56;;;7.50;39.13
51359;BME280;37448;51.588;7.248;2023-03-01T10:52:11;102123.09;;;6.43;40.55
51359;BME280;37448;51.588;7.248;2023-03-01T10:54:22;102110.16;;;6.02;41.15